CYSC

Details ICAO CYSC (YSC)
Name SHERBROOKE
Region Canada
Timezone America/Montreal (UTC-4.0)
Plans Departing 44
Arriving 42
Stats Elevation 792 ft / 241 m (AMSL)
Location 45.438500° -71.691400°
Runways 1
Magnetic Variation 15.151° W
Sunrise 2019-05-19 09:13:44 UTC / 2019-05-19 05:13:44 Local
Sunset 2019-05-20 00:15:33 UTC / 2019-05-19 20:15:33 Local
Advertisement - Login to hide

Runways

ID Width Length Bearing (true/mag) Surface Threshold Overrun Markings Lighting
13 150 ft / 46 m 5,988 ft / 1,825 m 118.88° / 134.03° ASPHALT 0 ft / 0 m 0 ft / 0 m APP EDGE THRESHOLD ODALS
31 150 ft / 46 m 5,988 ft / 1,825 m 298.90° / 314.05° ASPHALT 0 ft / 0 m 0 ft / 0 m APP EDGE THRESHOLD

Map

Weather


0- 5 10 15 20 25 30 35+ Temperature / °C

Clouds and Precipitation
Forecast for 2019-05-19 06:00 UTC. Updated 3 hours ago

Ground ~20,000 ft ~40,000 ft Winds

METAR

CYSC 190600Z AUTO 08003KT 9SM CLR 09/07 A3006 RMK SLP186

TAF

TAF CYSC 182338Z 1900/1903 VRB03KT P6SM SCT050 RMK FCST BASED ON AUTO OBS. NXT FCST WILL BE ISSUED AT 191045Z

Frequencies

Recorded 126.25 MHz AWOS
Tower 123.50 MHz MF
Unicom 123.50 MHz CTAF/UNICOM
Warning: Do not use this data for real-world aviation or navigation. No guarantee of current accuracy is given.